Time;durP1;ratioP1;P1;durP2;ratioP2;P2;SDS_P1;SDS_P2;PMS_P1;PMS_P2;Temp;Humidity;BMP_temperature;BMP_pressure;BME280_temperature;BME280_humidity;BME280_pressure;Samples;Min_cycle;Max_cycle;Signal;HPM_P1;HPM_P2
2022/04/25 00:00:48;;;;;;;21.33;11.43;;;;;10.30;95070.00;;;;8333820;28;20308;-69
2022/04/25 00:04:51;;;;;;;22.60;11.43;;;;;10.20;95063.00;;;;8333303;28;20241;-69
2022/04/25 00:08:55;;;;;;;19.90;10.70;;;;;10.20;95061.00;;;;8334161;28;20229;-70
2022/04/25 00:13:29;;;;;;;20.55;11.35;;;;;10.20;95059.00;;;;8333890;28;20224;-71
2022/04/25 00:17:32;;;;;;;23.37;11.77;;;;;10.20;95062.00;;;;8333649;28;20267;-72
2022/04/25 00:22:09;;;;;;;23.20;12.63;;;;;10.20;95065.00;;;;8333243;28;20217;-72
2022/04/25 00:26:14;;;;;;;24.37;12.50;;;;;10.20;95054.00;;;;8332954;28;20308;-71
2022/04/25 00:30:17;;;;;;;25.13;13.00;;;;;10.20;95067.00;;;;8333546;28;20247;-71
2022/04/25 00:34:20;;;;;;;21.87;11.80;;;;;10.20;95062.00;;;;8332184;28;20224;-71
2022/04/25 00:38:23;;;;;;;25.30;12.17;;;;;10.10;95067.00;;;;8333415;28;20244;-71
2022/04/25 00:43:00;;;;;;;26.40;12.50;;;;;10.20;95067.00;;;;8331867;28;20607;-71
2022/04/25 00:47:38;;;;;;;25.50;13.00;;;;;10.20;95072.00;;;;8332642;28;20264;-71
2022/04/25 00:51:42;;;;;;;24.50;12.80;;;;;10.20;95068.00;;;;8332584;28;20247;-70
2022/04/25 00:56:19;;;;;;;23.60;12.53;;;;;10.20;95071.00;;;;8332510;28;20666;-70
2022/04/25 01:00:22;;;;;;;24.80;11.63;;;;;10.30;95079.00;;;;8332376;28;20248;-71
2022/04/25 01:05:01;;;;;;;23.20;12.83;;;;;10.30;95069.00;;;;8332498;28;20246;-71
2022/04/25 01:09:05;;;;;;;22.53;11.67;;;;;10.20;95074.00;;;;8331444;28;20224;-70
2022/04/25 01:13:39;;;;;;;22.77;12.50;;;;;10.20;95072.00;;;;8332613;28;20312;-71
2022/04/25 01:17:42;;;;;;;21.20;12.50;;;;;10.20;95075.00;;;;8330957;28;20252;-71
2022/04/25 01:22:22;;;;;;;21.03;12.23;;;;;10.20;95069.00;;;;8331908;28;20875;-71
2022/04/25 01:31:03;;;;;;;23.13;13.13;;;;;10.20;95090.00;;;;8331766;28;20694;-70
2022/04/25 01:35:07;;;;;;;24.75;13.50;;;;;10.20;95094.00;;;;8331339;28;20300;-69
2022/04/25 01:39:10;;;;;;;22.00;12.67;;;;;10.20;95096.00;;;;8331440;28;20249;-69
2022/04/25 01:43:15;;;;;;;22.60;12.60;;;;;10.30;95090.00;;;;8330723;28;20296;-69
2022/04/25 01:47:19;;;;;;;21.53;12.83;;;;;10.30;95089.00;;;;8331223;28;20244;-69
2022/04/25 01:51:52;;;;;;;25.63;14.60;;;;;10.30;95097.00;;;;8325014;28;20225;-69
2022/04/25 01:55:56;;;;;;;26.53;14.00;;;;;10.20;95088.00;;;;8330537;28;20312;-69
2022/04/25 02:00:00;;;;;;;26.13;14.07;;;;;10.20;95095.00;;;;8330079;28;20293;-69
2022/04/25 02:04:04;;;;;;;27.08;14.80;;;;;10.20;95093.00;;;;8330482;28;20224;-69
2022/04/25 02:08:07;;;;;;;27.98;15.75;;;;;10.20;95096.00;;;;8330263;28;20229;-69
2022/04/25 02:12:44;;;;;;;31.30;16.77;;;;;10.20;95099.00;;;;8330548;28;20551;-69
2022/04/25 02:16:49;;;;;;;26.87;15.33;;;;;10.20;95106.00;;;;8330219;28;20249;-70
2022/04/25 02:21:23;;;;;;;36.17;17.63;;;;;10.10;95108.00;;;;8325800;28;20300;-70
2022/04/25 02:25:26;;;;;;;32.90;17.63;;;;;10.20;95107.00;;;;8313333;28;20248;-70
2022/04/25 02:30:04;;;;;;;31.63;17.40;;;;;10.00;95109.00;;;;8313678;28;20232;-69
2022/04/25 02:34:08;;;;;;;35.60;18.87;;;;;10.00;95111.00;;;;8312218;28;20256;-69
2022/04/25 02:38:12;;;;;;;38.70;19.50;;;;;10.00;95121.00;;;;8313324;28;20308;-69
2022/04/25 02:42:15;;;;;;;38.90;19.53;;;;;9.90;95121.00;;;;8311652;28;20311;-70
2022/04/25 02:46:18;;;;;;;42.37;20.70;;;;;10.00;95127.00;;;;8312899;28;20307;-69
2022/04/25 02:50:23;;;;;;;39.87;19.80;;;;;9.90;95121.00;;;;8312248;28;20236;-70
2022/04/25 02:54:26;;;;;;;45.47;21.50;;;;;9.90;95129.00;;;;8312026;28;20303;-70
2022/04/25 02:58:31;;;;;;;46.73;21.37;;;;;9.90;95121.00;;;;8312873;28;20275;-70
2022/04/25 03:02:34;;;;;;;44.13;21.50;;;;;9.90;95135.00;;;;8410866;22;20331;-72
2022/04/25 03:06:39;;;;;;;38.13;19.70;;;;;9.90;95128.00;;;;8371105;28;20236;-70
2022/04/25 03:10:43;;;;;;;41.70;19.90;;;;;9.90;95131.00;;;;8366895;28;21980;-73
2022/04/25 03:14:46;;;;;;;37.10;18.97;;;;;9.90;95140.00;;;;8377667;28;20232;-70
2022/04/25 03:18:50;;;;;;;43.20;19.83;;;;;9.90;95140.00;;;;8378223;28;20254;-71
2022/04/25 03:22:54;;;;;;;38.65;19.25;;;;;9.90;95138.00;;;;8373052;28;20608;-71
2022/04/25 03:26:58;;;;;;;37.30;19.40;;;;;9.90;95143.00;;;;8377755;28;20239;-70
2022/04/25 03:31:01;;;;;;;42.00;19.37;;;;;9.90;95152.00;;;;8378326;28;20224;-70
2022/04/25 03:35:05;;;;;;;39.33;19.83;;;;;9.90;95152.00;;;;8373015;28;20226;-70
2022/04/25 03:39:09;;;;;;;39.00;20.63;;;;;9.90;95144.00;;;;8371738;28;20230;-71
2022/04/25 03:43:15;;;;;;;36.97;19.10;;;;;9.80;95150.00;;;;8376262;28;20885;-71
2022/04/25 03:47:19;;;;;;;37.37;20.43;;;;;9.80;95158.00;;;;8377878;28;20231;-70
2022/04/25 03:51:22;;;;;;;42.37;21.07;;;;;9.80;95157.00;;;;8374466;28;20227;-71
2022/04/25 03:59:47;;;;;;;45.03;22.10;;;;;9.80;95169.00;;;;8353491;28;20837;-71
2022/04/25 04:03:50;;;;;;;45.70;22.33;;;;;9.80;95166.00;;;;8349392;28;20677;-68
2022/04/25 04:08:03;;;;;;;44.73;22.93;;;;;9.80;95166.00;;;;8353288;28;20236;-68
2022/04/25 04:12:11;;;;;;;41.37;21.87;;;;;9.80;95171.00;;;;8346404;28;20227;-69
2022/04/25 04:16:14;;;;;;;42.17;21.73;;;;;9.80;95174.00;;;;8368177;28;20311;-68
2022/04/25 04:20:18;;;;;;;42.93;21.37;;;;;9.70;95181.00;;;;8374477;28;20944;-68
2022/04/25 04:24:21;;;;;;;43.20;21.87;;;;;9.80;95183.00;;;;8372538;28;20262;-70
2022/04/25 04:28:26;;;;;;;40.07;20.57;;;;;9.80;95194.00;;;;8361932;28;20262;-68
2022/04/25 04:32:29;;;;;;;42.57;22.73;;;;;9.80;95211.00;;;;8360408;28;20650;-67
2022/04/25 04:36:32;;;;;;;42.90;21.57;;;;;9.80;95225.00;;;;8370368;28;20228;-68
2022/04/25 04:40:36;;;;;;;46.60;23.90;;;;;9.80;95222.00;;;;8355455;28;20258;-68
2022/04/25 04:44:42;;;;;;;44.20;23.97;;;;;9.80;95235.00;;;;8371047;28;20599;-68
2022/04/25 04:48:46;;;;;;;41.77;22.87;;;;;9.70;95237.00;;;;8362115;28;20233;-67
2022/04/25 04:52:51;;;;;;;41.63;21.53;;;;;9.70;95248.00;;;;8370270;28;20223;-67
2022/04/25 04:56:54;;;;;;;41.27;21.10;;;;;9.70;95257.00;;;;8372727;28;20710;-68
2022/04/25 05:00:59;;;;;;;37.20;20.50;;;;;9.60;95252.00;;;;8367981;28;20244;-68
2022/04/25 05:05:03;;;;;;;34.10;19.03;;;;;9.60;95264.00;;;;8371024;28;20228;-67
2022/04/25 05:09:06;;;;;;;34.67;19.37;;;;;9.60;95273.00;;;;8372159;28;20635;-67
2022/04/25 05:13:10;;;;;;;32.23;18.60;;;;;9.60;95275.00;;;;8377292;28;20238;-68
2022/04/25 05:17:14;;;;;;;29.50;17.67;;;;;9.60;95280.00;;;;8373403;28;20286;-68
2022/04/25 05:21:18;;;;;;;29.97;16.43;;;;;9.60;95284.00;;;;8374635;28;20315;-67
2022/04/25 05:25:29;;;;;;;25.70;16.10;;;;;9.60;95300.00;;;;8375921;28;20281;-67
2022/04/25 05:29:32;;;;;;;22.27;13.33;;;;;9.60;95308.00;;;;8377811;28;20259;-66
2022/04/25 05:33:39;;;;;;;21.13;12.93;;;;;9.40;95309.00;;;;8357141;28;20235;-67
2022/04/25 05:37:42;;;;;;;19.80;12.70;;;;;9.40;95309.00;;;;8373261;28;20596;-68
2022/04/25 05:41:46;;;;;;;18.00;10.80;;;;;9.50;95316.00;;;;8366049;28;20703;-68
2022/04/25 05:45:49;;;;;;;14.23;9.50;;;;;9.50;95324.00;;;;8361867;28;20227;-68
2022/04/25 05:54:15;;;;;;;15.07;9.90;;;;;9.50;95335.00;;;;8371034;28;20326;-67
2022/04/25 05:58:18;;;;;;;16.63;11.03;;;;;9.60;95337.00;;;;8366903;28;20231;-67
2022/04/25 06:02:21;;;;;;;14.37;10.43;;;;;9.70;95352.00;;;;8367858;28;20269;-67
2022/04/25 06:06:26;;;;;;;18.90;13.23;;;;;9.90;95351.00;;;;8374668;28;20250;-68
2022/04/25 06:10:30;;;;;;;16.10;10.40;;;;;10.00;95359.00;;;;8366705;28;20324;-69
2022/04/25 06:14:34;;;;;;;13.20;9.73;;;;;10.10;95363.00;;;;8375348;28;20700;-68
2022/04/25 06:18:38;;;;;;;13.83;10.07;;;;;10.10;95365.00;;;;8374639;28;20230;-68
2022/04/25 06:22:52;;;;;;;14.00;10.33;;;;;10.10;95373.00;;;;8372980;28;20336;-68
2022/04/25 06:26:55;;;;;;;15.57;10.40;;;;;10.10;95379.00;;;;8369224;28;20322;-68
2022/04/25 06:30:58;;;;;;;15.00;11.20;;;;;10.20;95381.00;;;;8374195;28;20307;-68
2022/04/25 06:35:02;;;;;;;18.70;13.33;;;;;10.20;95394.00;;;;8374521;28;20227;-68
2022/04/25 06:39:06;;;;;;;14.43;10.50;;;;;10.20;95395.00;;;;8360417;28;20232;-68
2022/04/25 06:43:10;;;;;;;18.33;11.67;;;;;10.10;95398.00;;;;8372414;28;20299;-68
2022/04/25 06:47:14;;;;;;;17.53;11.23;;;;;10.00;95406.00;;;;8370549;28;20328;-68
2022/04/25 06:51:17;;;;;;;18.20;11.53;;;;;10.00;95411.00;;;;8358421;28;20226;-67
2022/04/25 06:55:21;;;;;;;17.73;11.37;;;;;9.90;95421.00;;;;8366995;28;20225;-67
2022/04/25 06:59:24;;;;;;;19.00;12.20;;;;;10.00;95420.00;;;;8364656;28;20568;-68
2022/04/25 07:03:27;;;;;;;17.80;11.30;;;;;10.00;95428.00;;;;8368284;28;20716;-67
2022/04/25 07:07:31;;;;;;;16.20;10.87;;;;;10.10;95434.00;;;;8362221;28;21055;-68
2022/04/25 07:11:35;;;;;;;15.30;10.93;;;;;10.10;95437.00;;;;8357176;28;20228;-69
2022/04/25 07:15:39;;;;;;;17.77;10.97;;;;;10.30;95432.00;;;;8366497;28;20227;-67
2022/04/25 07:19:42;;;;;;;14.90;10.63;;;;;10.40;95435.00;;;;8367363;28;20230;-68
2022/04/25 07:32:28;;;;;;;15.37;10.70;;;;;11.00;95438.00;;;;8365928;28;20651;-68
2022/04/25 07:36:31;;;;;;;13.17;10.03;;;;;11.30;95448.00;;;;8360375;28;20223;-68
2022/04/25 07:40:36;;;;;;;13.73;10.23;;;;;11.60;95451.00;;;;8372853;28;20248;-68
2022/04/25 07:44:40;;;;;;;14.20;9.77;;;;;11.80;95458.00;;;;8368700;28;22009;-68
2022/04/25 07:48:43;;;;;;;13.10;9.80;;;;;12.20;95462.00;;;;8373275;28;20230;-68
2022/04/25 07:52:47;;;;;;;16.05;10.43;;;;;12.30;95465.00;;;;8368366;28;20213;-68
2022/04/25 07:56:51;;;;;;;13.23;9.63;;;;;12.30;95469.00;;;;8374239;28;20640;-67
2022/04/25 08:00:56;;;;;;;15.85;9.68;;;;;12.20;95475.00;;;;8380458;28;20217;-68
2022/04/25 08:05:02;;;;;;;12.85;9.40;;;;;12.20;95478.00;;;;8384631;28;20235;-69
2022/04/25 08:09:05;;;;;;;13.70;9.68;;;;;12.30;95484.00;;;;8377170;28;20247;-67
2022/04/25 08:21:52;;;;;;;12.50;8.80;;;;;12.30;95498.00;;;;8381674;28;20302;-68
2022/04/25 08:25:55;;;;;;;11.77;9.30;;;;;12.30;95502.00;;;;8377360;28;20335;-68
2022/04/25 08:29:59;;;;;;;10.32;7.57;;;;;12.30;95502.00;;;;8380156;28;20256;-67
2022/04/25 08:34:06;;;;;;;11.90;8.15;;;;;12.10;95516.00;;;;8374308;28;20323;-68
2022/04/25 08:38:09;;;;;;;13.35;9.40;;;;;12.10;95522.00;;;;8366483;28;20271;-68
2022/04/25 08:42:13;;;;;;;14.93;9.52;;;;;12.00;95536.00;;;;8369461;28;20307;-69
2022/04/25 08:46:37;;;;;;;11.30;8.25;;;;;11.70;95538.00;;;;8364872;28;20236;-70
2022/04/25 08:50:43;;;;;;;13.30;8.68;;;;;11.50;95539.00;;;;8379107;28;20226;-68
2022/04/25 08:54:48;;;;;;;11.63;8.63;;;;;11.50;95539.00;;;;8369932;28;20312;-69
2022/04/25 08:58:53;;;;;;;12.33;8.83;;;;;11.80;95552.00;;;;8379848;28;20270;-69
2022/04/25 09:02:56;;;;;;;10.18;7.40;;;;;12.20;95543.00;;;;8368680;28;20242;-70
2022/04/25 09:07:01;;;;;;;9.38;7.30;;;;;12.70;95543.00;;;;8370991;28;20255;-71
2022/04/25 09:15:23;;;;;;;11.07;8.25;;;;;13.60;95564.00;;;;8370345;28;20228;-69
2022/04/25 09:19:29;;;;;;;9.80;7.28;;;;;14.10;95566.00;;;;8376233;28;21815;-70
2022/04/25 09:23:34;;;;;;;9.63;7.22;;;;;14.70;95568.00;;;;8369873;28;20230;-69
2022/04/25 09:27:37;;;;;;;8.93;6.47;;;;;15.00;95574.00;;;;8372195;28;20302;-69
2022/04/25 09:31:48;;;;;;;9.98;6.80;;;;;15.20;95571.00;;;;8369699;28;20224;-69
2022/04/25 09:35:54;;;;;;;8.40;6.70;;;;;15.50;95580.00;;;;8370181;28;20720;-69
2022/04/25 09:40:03;;;;;;;8.13;6.80;;;;;15.80;95577.00;;;;8372274;28;20223;-69
2022/04/25 09:44:06;;;;;;;6.15;5.55;;;;;15.90;95583.00;;;;8372665;28;20230;-69
2022/04/25 09:48:11;;;;;;;6.95;5.82;;;;;15.90;95586.00;;;;8375856;28;20231;-69
2022/04/25 09:52:14;;;;;;;7.93;6.53;;;;;16.10;95592.00;;;;8379303;28;20986;-68
2022/04/25 09:56:20;;;;;;;8.18;5.97;;;;;16.10;95587.00;;;;8375401;28;20234;-68
2022/04/25 10:00:33;;;;;;;6.47;5.28;;;;;15.90;95600.00;;;;8364577;28;20725;-68
2022/04/25 10:04:37;;;;;;;6.28;5.68;;;;;15.90;95598.00;;;;8369484;28;20236;-68
2022/04/25 10:08:41;;;;;;;5.30;4.80;;;;;15.70;95605.00;;;;8366084;28;20351;-69
2022/04/25 10:12:46;;;;;;;6.38;4.78;;;;;15.40;95601.00;;;;8359757;28;20281;-71
2022/04/25 10:16:49;;;;;;;7.88;5.78;;;;;15.40;95605.00;;;;8367123;28;20358;-70
2022/04/25 10:20:54;;;;;;;6.35;5.75;;;;;15.60;95603.00;;;;8371944;28;20239;-70
2022/04/25 10:24:57;;;;;;;7.00;5.63;;;;;15.80;95613.00;;;;8377858;28;20226;-70
2022/04/25 10:29:08;;;;;;;5.95;5.35;;;;;15.40;95610.00;;;;8375864;28;20234;-70
2022/04/25 10:33:16;;;;;;;5.22;4.50;;;;;14.80;95624.00;;;;8374560;28;20764;-70
2022/04/25 10:37:30;;;;;;;5.40;4.90;;;;;14.50;95628.00;;;;8377387;28;20258;-69
2022/04/25 10:45:58;;;;;;;6.28;5.63;;;;;14.60;95631.00;;;;8373924;28;20910;-70
2022/04/25 10:50:06;;;;;;;8.88;6.32;;;;;15.10;95635.00;;;;8375513;28;20239;-70
2022/04/25 10:54:12;;;;;;;7.55;5.88;;;;;15.50;95635.00;;;;8376150;28;20327;-70
2022/04/25 10:58:22;;;;;;;7.88;5.82;;;;;15.70;95641.00;;;;8376296;28;20315;-70
2022/04/25 11:02:28;;;;;;;11.40;6.30;;;;;15.60;95643.00;;;;8376713;28;20277;-70
2022/04/25 11:06:31;;;;;;;6.20;5.60;;;;;15.70;95653.00;;;;8375204;28;20250;-70
2022/04/25 11:10:45;;;;;;;6.00;5.40;;;;;15.50;95660.00;;;;8376904;28;20223;-70
2022/04/25 11:14:59;;;;;;;6.60;5.57;;;;;15.20;95656.00;;;;8377274;28;20322;-70
2022/04/25 11:19:19;;;;;;;6.10;5.50;;;;;15.00;95661.00;;;;8374426;28;20334;-70
2022/04/25 11:23:29;;;;;;;7.40;5.03;;;;;14.80;95663.00;;;;8378155;28;20308;-69
2022/04/25 11:28:02;;;;;;;4.97;4.50;;;;;14.70;95678.00;;;;8381394;28;20269;-69
2022/04/25 11:32:27;;;;;;;5.65;5.07;;;;;14.70;95671.00;;;;8372653;28;20231;-69
2022/04/25 11:36:37;;;;;;;7.80;5.25;;;;;14.40;95679.00;;;;8367680;28;20234;-70
2022/04/25 11:40:42;;;;;;;5.82;5.32;;;;;14.40;95679.00;;;;8359275;28;20302;-72
2022/04/25 11:44:45;;;;;;;5.68;4.97;;;;;14.40;95691.00;;;;8365825;28;20707;-69
2022/04/25 11:48:49;;;;;;;8.25;6.00;;;;;14.40;95693.00;;;;8362194;28;20232;-71
2022/04/25 11:52:55;;;;;;;6.38;5.63;;;;;14.50;95689.00;;;;8379363;28;20285;-71
2022/04/25 11:57:01;;;;;;;6.78;5.15;;;;;14.80;95694.00;;;;8374909;28;20309;-72
2022/04/25 12:01:04;;;;;;;5.78;4.95;;;;;15.10;95700.00;;;;8375306;28;20233;-69
2022/04/25 12:05:08;;;;;;;7.45;4.57;;;;;15.20;95701.00;;;;8373030;28;20231;-69
2022/04/25 12:17:55;;;;;;;6.63;5.47;;;;;16.20;95710.00;;;;8373597;28;20228;-71
2022/04/25 12:22:03;;;;;;;7.68;5.82;;;;;16.80;95708.00;;;;8374276;28;20228;-72
2022/04/25 12:26:17;;;;;;;5.90;5.30;;;;;17.40;95721.00;;;;8372802;28;20228;-71
2022/04/25 12:30:20;;;;;;;6.43;5.78;;;;;17.70;95724.00;;;;8375659;28;20784;-70
2022/04/25 12:34:24;;;;;;;7.25;5.50;;;;;18.00;95725.00;;;;8373597;28;20394;-70
2022/04/25 12:38:40;;;;;;;5.60;5.00;;;;;18.20;95725.00;;;;8368375;28;20235;-70
2022/04/25 12:42:51;;;;;;;6.05;5.45;;;;;18.30;95718.00;;;;8372003;28;20236;-68
2022/04/25 12:47:04;;;;;;;6.20;5.28;;;;;18.30;95720.00;;;;8365416;28;20236;-68
2022/04/25 12:51:07;;;;;;;5.75;4.95;;;;;18.60;95731.00;;;;8375429;28;20237;-67
2022/04/25 12:55:11;;;;;;;5.70;5.07;;;;;18.90;95724.00;;;;8367384;28;20835;-69
2022/04/25 12:59:24;;;;;;;5.68;5.18;;;;;19.00;95718.00;;;;8373616;28;20227;-67
2022/04/25 13:03:28;;;;;;;5.05;4.47;;;;;19.50;95724.00;;;;8370866;28;20644;-68
2022/04/25 13:07:33;;;;;;;4.50;4.10;;;;;19.90;95720.00;;;;8377542;28;20232;-69
2022/04/25 13:11:37;;;;;;;4.78;4.38;;;;;20.00;95722.00;;;;8373916;28;20872;-69
2022/04/25 13:15:44;;;;;;;3.92;3.53;;;;;20.00;95719.00;;;;8363206;28;20908;-68
2022/04/25 13:19:47;;;;;;;4.30;3.53;;;;;19.90;95732.00;;;;8359902;28;20231;-69
2022/04/25 13:23:50;;;;;;;4.30;3.90;;;;;20.10;95727.00;;;;8362289;28;20232;-67
2022/04/25 13:27:54;;;;;;;3.05;2.85;;;;;20.20;95722.00;;;;8372425;28;20227;-69
2022/04/25 13:31:59;;;;;;;3.60;3.30;;;;;20.00;95730.00;;;;8372040;28;20983;-69
2022/04/25 13:36:05;;;;;;;4.35;3.95;;;;;20.10;95731.00;;;;8371883;28;20496;-68
2022/04/25 13:40:09;;;;;;;4.30;3.95;;;;;20.10;95726.00;;;;8372724;28;20600;-68
2022/04/25 13:44:12;;;;;;;5.07;4.57;;;;;20.00;95735.00;;;;8369206;28;20307;-68
2022/04/25 13:48:17;;;;;;;4.40;4.05;;;;;20.10;95732.00;;;;8380059;28;20649;-68
2022/04/25 13:52:20;;;;;;;4.85;4.35;;;;;20.60;95729.00;;;;8377441;28;20846;-70
2022/04/25 13:56:23;;;;;;;4.57;4.18;;;;;21.30;95718.00;;;;8372012;28;20235;-70
2022/04/25 14:00:27;;;;;;;5.40;4.30;;;;;22.20;95727.00;;;;8375161;28;20600;-69
2022/04/25 14:04:32;;;;;;;5.65;4.50;;;;;22.20;95718.00;;;;8367113;28;20237;-69
2022/04/25 14:08:36;;;;;;;5.47;4.40;;;;;21.90;95723.00;;;;8372451;28;20250;-70
2022/04/25 14:12:39;;;;;;;4.30;3.95;;;;;21.40;95725.00;;;;8378358;28;20228;-69
2022/04/25 14:16:42;;;;;;;3.58;3.30;;;;;21.00;95727.00;;;;8376374;28;20307;-68
2022/04/25 14:20:47;;;;;;;4.18;3.88;;;;;21.30;95719.00;;;;8349879;28;20328;-69
2022/04/25 14:24:50;;;;;;;4.43;4.03;;;;;22.00;95726.00;;;;8364676;28;20319;-69
2022/04/25 14:28:54;;;;;;;3.78;3.42;;;;;22.20;95720.00;;;;8367819;28;20262;-68
2022/04/25 14:33:12;;;;;;;5.00;4.60;;;;;22.60;95724.00;;;;8377246;28;20224;-68
2022/04/25 14:37:17;;;;;;;4.50;4.20;;;;;22.90;95716.00;;;;8367756;28;20306;-67
2022/04/25 14:41:20;;;;;;;3.90;3.60;;;;;22.80;95717.00;;;;8370411;28;20351;-69
2022/04/25 14:45:23;;;;;;;4.35;4.03;;;;;22.40;95721.00;;;;8377869;28;20598;-68
2022/04/25 14:58:05;;;;;;;3.40;3.20;;;;;22.30;95716.00;;;;8364443;28;21008;-68
2022/04/25 15:02:09;;;;;;;4.90;3.83;;;;;22.40;95710.00;;;;8365064;28;20220;-69
2022/04/25 15:06:12;;;;;;;4.05;3.50;;;;;21.80;95720.00;;;;8365917;28;20310;-68
2022/04/25 15:10:17;;;;;;;8.55;3.40;;;;;22.00;95721.00;;;;8381405;28;20810;-68
2022/04/25 15:14:20;;;;;;;3.35;3.05;;;;;22.10;95731.00;;;;8373199;28;20254;-69
2022/04/25 15:18:23;;;;;;;3.15;2.95;;;;;20.80;95726.00;;;;8376924;28;20232;-68
2022/04/25 15:22:26;;;;;;;3.58;3.28;;;;;20.50;95725.00;;;;8367500;28;20236;-68
2022/04/25 15:26:32;;;;;;;13.55;3.75;;;;;20.50;95730.00;;;;8369864;28;20228;-68
2022/04/25 15:30:35;;;;;;;5.95;5.32;;;;;20.40;95726.00;;;;8374941;28;20627;-68
2022/04/25 15:34:38;;;;;;;3.75;3.45;;;;;19.80;95735.00;;;;8360770;28;20231;-68
2022/04/25 15:38:41;;;;;;;3.97;3.58;;;;;19.30;95728.00;;;;8370577;28;20232;-68
2022/04/25 15:42:47;;;;;;;5.03;3.70;;;;;19.10;95736.00;;;;8378485;28;20651;-68
2022/04/25 15:46:54;;;;;;;4.38;3.97;;;;;19.40;95737.00;;;;8364131;28;20229;-69
2022/04/25 15:50:58;;;;;;;4.22;3.92;;;;;19.80;95741.00;;;;8371553;28;20556;-69
2022/04/25 15:59:25;;;;;;;4.07;3.78;;;;;20.20;95746.00;;;;8376895;28;20692;-70
2022/04/25 16:03:28;;;;;;;3.22;3.03;;;;;20.10;95753.00;;;;8376133;28;20701;-69
2022/04/25 16:07:32;;;;;;;2.90;2.70;;;;;19.70;95744.00;;;;8349853;28;20617;-70
2022/04/25 16:11:41;;;;;;;4.60;3.10;;;;;19.20;95747.00;;;;8355108;28;20228;-70
2022/04/25 16:15:46;;;;;;;3.25;3.03;;;;;18.70;95742.00;;;;8365580;28;20600;-71
2022/04/25 16:19:49;;;;;;;3.30;3.10;;;;;18.40;95743.00;;;;8365995;28;20307;-70
2022/04/25 16:23:54;;;;;;;3.95;3.65;;;;;18.10;95747.00;;;;8366083;28;20251;-71
2022/04/25 16:27:58;;;;;;;3.90;3.60;;;;;17.90;95747.00;;;;8368889;28;20220;-72
2022/04/25 16:32:02;;;;;;;3.65;3.33;;;;;17.60;95747.00;;;;8372751;28;20771;-72
2022/04/25 16:36:07;;;;;;;4.30;3.80;;;;;17.30;95747.00;;;;8376789;28;20306;-71
2022/04/25 16:40:11;;;;;;;3.03;2.83;;;;;17.00;95746.00;;;;8373605;28;20743;-70
2022/04/25 16:44:15;;;;;;;4.25;3.60;;;;;16.60;95747.00;;;;8378971;28;20223;-71
2022/04/25 16:48:20;;;;;;;3.33;3.03;;;;;16.40;95745.00;;;;8373447;28;20224;-71
2022/04/25 16:52:23;;;;;;;3.95;3.55;;;;;16.30;95750.00;;;;8372435;28;20246;-72
2022/04/25 16:56:26;;;;;;;4.00;3.70;;;;;16.20;95760.00;;;;8379352;28;20265;-72
2022/04/25 17:00:30;;;;;;;3.63;3.33;;;;;16.30;95762.00;;;;8362656;28;21461;-71
2022/04/25 17:04:35;;;;;;;3.17;2.92;;;;;16.30;95765.00;;;;8355153;28;20244;-70
2022/04/25 17:08:39;;;;;;;3.90;3.40;;;;;16.10;95758.00;;;;8362160;28;20319;-71
2022/04/25 17:12:42;;;;;;;4.13;3.83;;;;;15.90;95760.00;;;;8370727;28;20244;-72
2022/04/25 17:16:45;;;;;;;5.47;4.95;;;;;15.80;95768.00;;;;8370557;28;20234;-72
2022/04/25 17:20:50;;;;;;;4.68;4.20;;;;;15.60;95767.00;;;;8358412;28;20264;-72
2022/04/25 17:24:54;;;;;;;3.70;3.40;;;;;15.50;95763.00;;;;8362675;28;20294;-72
2022/04/25 17:28:57;;;;;;;3.97;3.67;;;;;15.50;95766.00;;;;8362073;28;20331;-72
